Time;durP1;ratioP1;P1;durP2;ratioP2;P2;SDS_P1;SDS_P2;PMS_P1;PMS_P2;Temp;Humidity;BMP_temperature;BMP_pressure;BME280_temperature;BME280_humidity;BME280_pressure;Samples;Min_cycle;Max_cycle;Signal;HPM_P1;HPM_P2
2023/12/14 00:01:16;;;;;;;6.60;4.63;;;10.80;80.80;;;;;;4993566;28;20045;-77
2023/12/14 00:03:44;;;;;;;7.20;5.25;;;10.80;80.80;;;;;;4977036;28;20479;-76
2023/12/14 00:06:13;;;;;;;6.65;4.72;;;10.70;80.80;;;;;;4978237;28;20039;-76
2023/12/14 00:08:39;;;;;;;7.03;5.05;;;10.70;80.80;;;;;;4993715;28;20495;-76
2023/12/14 00:11:07;;;;;;;6.40;4.72;;;10.70;80.70;;;;;;4993081;28;20117;-76
2023/12/14 00:13:33;;;;;;;6.63;4.75;;;10.70;80.80;;;;;;4993594;28;20035;-75
2023/12/14 00:15:59;;;;;;;6.93;5.18;;;10.70;80.70;;;;;;4993358;28;20038;-76
2023/12/14 00:18:25;;;;;;;6.53;4.85;;;10.70;80.80;;;;;;4993087;28;20402;-77
2023/12/14 00:20:52;;;;;;;7.78;5.43;;;10.70;80.80;;;;;;4993036;28;20030;-75
2023/12/14 00:23:18;;;;;;;7.38;5.40;;;10.70;80.80;;;;;;4994059;28;20034;-76
2023/12/14 00:25:44;;;;;;;8.05;5.57;;;10.70;80.80;;;;;;4993059;28;20038;-76
2023/12/14 00:28:09;;;;;;;6.20;4.70;;;10.60;80.80;;;;;;4977379;28;20034;-76
2023/12/14 00:30:35;;;;;;;8.68;6.10;;;10.60;80.80;;;;;;4993034;28;20035;-77
2023/12/14 00:33:01;;;;;;;5.82;4.35;;;10.60;80.80;;;;;;4976871;28;20041;-77
2023/12/14 00:35:27;;;;;;;6.43;4.85;;;10.60;80.80;;;;;;4977543;28;20030;-76
2023/12/14 00:37:52;;;;;;;7.10;5.18;;;10.60;80.80;;;;;;4992941;28;20553;-76
2023/12/14 00:40:18;;;;;;;6.95;5.22;;;10.60;80.90;;;;;;4992747;28;20030;-76
2023/12/14 00:42:44;;;;;;;6.75;5.35;;;10.60;80.90;;;;;;4993175;28;20027;-76
2023/12/14 00:45:10;;;;;;;6.43;4.60;;;10.50;80.80;;;;;;4993278;28;20072;-76
2023/12/14 00:47:36;;;;;;;7.03;4.93;;;10.50;80.80;;;;;;4993808;28;20022;-74
2023/12/14 00:50:02;;;;;;;7.15;4.82;;;10.50;80.80;;;;;;4992727;28;20042;-77
2023/12/14 00:52:28;;;;;;;7.57;5.32;;;10.50;80.80;;;;;;4994011;28;20057;-76
2023/12/14 00:54:53;;;;;;;8.15;5.80;;;10.50;80.80;;;;;;4994219;28;20031;-76
2023/12/14 00:57:19;;;;;;;7.70;5.68;;;10.50;80.80;;;;;;4976464;28;20046;-77
2023/12/14 00:59:45;;;;;;;7.78;5.80;;;10.50;80.80;;;;;;4992292;28;20069;-76
2023/12/14 01:02:11;;;;;;;5.90;4.57;;;10.50;80.80;;;;;;4976501;28;20023;-74
2023/12/14 01:04:36;;;;;;;7.60;5.38;;;10.50;80.80;;;;;;4992522;28;20073;-75
2023/12/14 01:07:03;;;;;;;7.13;5.20;;;10.40;80.70;;;;;;4992628;28;20043;-76
2023/12/14 01:09:29;;;;;;;6.93;4.97;;;10.40;80.80;;;;;;4992527;28;20030;-76
2023/12/14 01:11:54;;;;;;;6.85;5.38;;;10.40;80.80;;;;;;4976948;28;20030;-76
2023/12/14 01:14:20;;;;;;;7.00;5.07;;;10.40;80.80;;;;;;4992880;28;20046;-76
2023/12/14 01:16:46;;;;;;;6.95;5.05;;;10.40;80.80;;;;;;4992650;28;20471;-76
2023/12/14 01:19:12;;;;;;;6.68;4.85;;;10.40;80.80;;;;;;4976290;28;20038;-76
2023/12/14 01:21:37;;;;;;;8.18;5.85;;;10.40;80.90;;;;;;4992260;28;20038;-76
2023/12/14 01:24:03;;;;;;;7.75;5.68;;;10.30;80.80;;;;;;4976235;28;20037;-76
2023/12/14 01:26:29;;;;;;;6.68;5.28;;;10.30;80.80;;;;;;4976254;28;20046;-76
2023/12/14 01:28:55;;;;;;;6.85;5.35;;;10.30;80.80;;;;;;4992366;28;20038;-77
2023/12/14 01:31:23;;;;;;;7.03;5.10;;;10.30;80.80;;;;;;4994134;28;20069;-76
2023/12/14 01:33:49;;;;;;;7.15;5.10;;;10.30;80.80;;;;;;4992806;28;20030;-76
2023/12/14 01:36:25;;;;;;;7.05;5.40;;;10.20;80.70;;;;;;4976160;28;20038;-76
2023/12/14 01:38:52;;;;;;;7.40;5.60;;;10.30;80.90;;;;;;4976117;28;20035;-76
2023/12/14 01:41:18;;;;;;;6.88;5.20;;;10.20;80.70;;;;;;4976832;28;20464;-76
2023/12/14 01:43:44;;;;;;;8.15;5.65;;;10.20;80.70;;;;;;4991976;28;20030;-76
2023/12/14 01:46:10;;;;;;;7.53;5.05;;;10.20;80.70;;;;;;4992651;28;20030;-76
2023/12/14 01:48:36;;;;;;;7.47;5.32;;;10.20;80.80;;;;;;4993908;28;20125;-77
2023/12/14 01:51:02;;;;;;;7.30;5.43;;;10.20;80.80;;;;;;4991950;28;20069;-76
2023/12/14 01:53:28;;;;;;;7.53;5.10;;;10.20;80.80;;;;;;4991967;28;20479;-76
2023/12/14 01:55:54;;;;;;;6.97;5.32;;;10.20;80.90;;;;;;4993079;28;20059;-76
2023/12/14 01:58:20;;;;;;;7.15;5.45;;;10.10;80.80;;;;;;4996313;28;20031;-76
2023/12/14 02:01:07;;;;;;;6.93;5.35;;;10.10;80.80;;;;;;4995545;28;20105;-76
2023/12/14 02:03:33;;;;;;;6.57;5.10;;;10.10;80.80;;;;;;4995896;28;20084;-76
2023/12/14 02:05:59;;;;;;;6.75;4.90;;;10.10;80.70;;;;;;4978952;28;20124;-76
2023/12/14 02:08:25;;;;;;;8.30;5.70;;;10.10;80.80;;;;;;4979742;28;20030;-76
2023/12/14 02:10:50;;;;;;;7.43;5.68;;;10.10;80.90;;;;;;4979424;28;20038;-74
2023/12/14 02:13:16;;;;;;;6.00;4.72;;;10.10;80.90;;;;;;4979994;28;20409;-76
2023/12/14 02:15:42;;;;;;;6.93;5.22;;;10.10;80.90;;;;;;4995728;28;20026;-77
2023/12/14 02:18:08;;;;;;;9.02;5.97;;;10.10;80.90;;;;;;4995803;28;20116;-76
2023/12/14 02:20:33;;;;;;;6.95;5.40;;;10.10;80.90;;;;;;4995438;28;20030;-75
2023/12/14 02:22:59;;;;;;;7.55;5.80;;;10.00;80.80;;;;;;4979911;28;20449;-75
2023/12/14 02:25:25;;;;;;;7.03;5.38;;;10.00;80.80;;;;;;4979389;28;20053;-75
2023/12/14 02:27:51;;;;;;;6.55;5.15;;;10.00;80.90;;;;;;4979688;28;20034;-76
2023/12/14 02:30:18;;;;;;;6.43;5.05;;;10.00;80.90;;;;;;4979018;28;20097;-75
2023/12/14 02:32:44;;;;;;;7.28;5.25;;;9.90;80.90;;;;;;4995470;28;20117;-76
2023/12/14 02:35:10;;;;;;;6.97;5.65;;;9.90;80.90;;;;;;4978967;28;20123;-76
2023/12/14 02:37:37;;;;;;;7.10;5.57;;;9.90;80.90;;;;;;4978563;28;20036;-76
2023/12/14 02:40:04;;;;;;;6.60;5.03;;;9.90;80.90;;;;;;4978813;28;20030;-75
2023/12/14 02:42:30;;;;;;;6.85;5.32;;;10.00;81.00;;;;;;4995359;28;20077;-75
2023/12/14 02:44:56;;;;;;;7.03;5.57;;;9.90;80.90;;;;;;4978706;28;20054;-76
2023/12/14 02:47:22;;;;;;;7.55;5.15;;;9.90;81.00;;;;;;4994750;28;20125;-76
2023/12/14 02:49:48;;;;;;;6.88;5.22;;;9.90;81.00;;;;;;4994665;28;20489;-76
2023/12/14 02:52:14;;;;;;;7.50;5.70;;;9.90;81.00;;;;;;4978561;28;20034;-76
2023/12/14 02:54:40;;;;;;;7.10;5.35;;;9.90;80.90;;;;;;4979306;28;20038;-74
2023/12/14 02:57:06;;;;;;;6.65;5.25;;;9.90;80.90;;;;;;4978543;28;20034;-75
2023/12/14 02:59:32;;;;;;;7.20;5.53;;;9.80;80.90;;;;;;4994708;28;20467;-74
2023/12/14 03:01:58;;;;;;;7.97;5.65;;;9.80;80.90;;;;;;4978484;28;20027;-76
2023/12/14 03:04:23;;;;;;;6.72;5.28;;;9.80;80.90;;;;;;4978401;28;20078;-76
2023/12/14 03:06:50;;;;;;;7.72;5.72;;;9.80;80.90;;;;;;4993794;28;20074;-75
2023/12/14 03:09:18;;;;;;;6.70;5.30;;;9.80;80.90;;;;;;4994626;28;20035;-76
2023/12/14 03:11:44;;;;;;;7.88;5.63;;;9.80;81.00;;;;;;4978278;28;20064;-76
2023/12/14 03:14:10;;;;;;;7.28;5.15;;;9.80;81.00;;;;;;4994818;28;20058;-76
2023/12/14 03:16:36;;;;;;;6.60;5.60;;;9.80;81.00;;;;;;4978135;28;20030;-75
2023/12/14 03:19:03;;;;;;;7.03;5.60;;;9.80;81.00;;;;;;4994145;28;20089;-76
2023/12/14 03:21:29;;;;;;;6.00;5.05;;;9.70;81.00;;;;;;4994409;28;20034;-75
2023/12/14 03:23:55;;;;;;;7.78;5.90;;;9.70;81.00;;;;;;4994125;28;20035;-75
2023/12/14 03:26:20;;;;;;;7.13;5.38;;;9.70;81.00;;;;;;4977808;28;20042;-75
2023/12/14 03:28:46;;;;;;;7.35;5.35;;;9.70;81.00;;;;;;4993996;28;20080;-76
2023/12/14 03:31:13;;;;;;;6.75;5.35;;;9.70;81.00;;;;;;4994436;28;20076;-77
2023/12/14 03:33:39;;;;;;;6.95;5.28;;;9.70;81.00;;;;;;4978120;28;20105;-75
2023/12/14 03:36:05;;;;;;;6.65;5.45;;;9.70;81.00;;;;;;4977813;28;20495;-75
2023/12/14 03:38:33;;;;;;;6.95;5.05;;;9.70;81.00;;;;;;4962519;28;20037;-76
2023/12/14 03:40:58;;;;;;;6.90;5.43;;;9.70;81.70;;;;;;4978035;28;20035;-73
2023/12/14 03:43:24;;;;;;;7.25;5.55;;;9.60;81.00;;;;;;4977810;28;20060;-75
2023/12/14 03:45:50;;;;;;;6.20;4.90;;;9.60;81.00;;;;;;4993606;28;20140;-75
2023/12/14 03:48:16;;;;;;;7.40;5.13;;;9.60;80.90;;;;;;4978573;28;20035;-76
2023/12/14 03:50:41;;;;;;;6.82;5.20;;;9.60;81.00;;;;;;4995558;28;20369;-76
2023/12/14 03:53:07;;;;;;;7.75;5.53;;;9.70;81.00;;;;;;4994008;28;20125;-73
2023/12/14 03:55:33;;;;;;;7.38;5.28;;;9.60;81.00;;;;;;4977514;28;20038;-76
2023/12/14 03:57:59;;;;;;;7.63;6.05;;;9.60;81.00;;;;;;4993617;28;20562;-76
2023/12/14 04:00:25;;;;;;;6.75;5.13;;;9.60;81.00;;;;;;4993391;28;20129;-76
2023/12/14 04:02:50;;;;;;;6.28;4.90;;;9.60;81.00;;;;;;4993809;28;20032;-76
2023/12/14 04:05:17;;;;;;;6.70;5.32;;;9.60;81.00;;;;;;4993262;28;20142;-76
2023/12/14 04:07:43;;;;;;;6.07;4.75;;;9.60;81.00;;;;;;4993588;28;20038;-75
2023/12/14 04:10:10;;;;;;;6.72;5.50;;;9.60;81.10;;;;;;4993260;28;20438;-76
2023/12/14 04:12:39;;;;;;;6.55;5.05;;;9.60;81.00;;;;;;4977158;28;20034;-75
2023/12/14 04:15:07;;;;;;;6.88;5.22;;;9.60;81.10;;;;;;4977352;28;20073;-76
2023/12/14 04:17:33;;;;;;;6.70;5.00;;;9.50;81.00;;;;;;4977102;28;20034;-75
2023/12/14 04:19:59;;;;;;;6.28;5.10;;;9.50;81.00;;;;;;4976569;28;20533;-75
2023/12/14 04:22:25;;;;;;;7.20;5.28;;;9.50;81.00;;;;;;4993101;28;20129;-75
2023/12/14 04:24:51;;;;;;;6.65;4.95;;;9.50;81.00;;;;;;4976987;28;20026;-76
2023/12/14 04:27:17;;;;;;;6.32;4.53;;;9.50;81.70;;;;;;4994621;28;20035;-75
2023/12/14 04:29:43;;;;;;;6.68;5.45;;;9.50;81.10;;;;;;4976878;28;20030;-76
2023/12/14 04:32:09;;;;;;;6.82;5.13;;;9.50;81.10;;;;;;4993365;28;20062;-75
2023/12/14 04:34:35;;;;;;;6.60;5.15;;;9.50;81.10;;;;;;4976833;28;20141;-76
2023/12/14 04:37:01;;;;;;;6.50;4.90;;;9.50;81.20;;;;;;4993020;28;20431;-76
2023/12/14 04:39:27;;;;;;;6.72;5.22;;;9.40;81.10;;;;;;4977388;28;20031;-76
2023/12/14 04:41:53;;;;;;;6.57;5.20;;;9.50;81.20;;;;;;4994424;28;20026;-76
2023/12/14 04:44:19;;;;;;;5.93;4.70;;;9.40;81.20;;;;;;4976639;28;20040;-75
2023/12/14 04:46:45;;;;;;;6.60;5.13;;;9.40;81.20;;;;;;4976827;28;20050;-76
2023/12/14 04:49:11;;;;;;;6.47;5.10;;;9.40;81.20;;;;;;4993847;28;20398;-75
2023/12/14 04:51:37;;;;;;;6.75;5.20;;;9.40;81.20;;;;;;4977294;28;20420;-75
2023/12/14 04:54:03;;;;;;;6.57;5.30;;;9.40;81.80;;;;;;4993363;28;20475;-76
2023/12/14 04:56:29;;;;;;;6.45;5.30;;;9.40;81.20;;;;;;4976573;28;20494;-76
2023/12/14 04:58:55;;;;;;;6.50;5.03;;;9.40;81.20;;;;;;4992665;28;20129;-75
2023/12/14 05:01:21;;;;;;;6.05;4.85;;;9.40;81.20;;;;;;4976440;28;20416;-75
2023/12/14 05:03:46;;;;;;;6.57;5.22;;;9.40;81.20;;;;;;4976544;28;20034;-75
2023/12/14 05:06:12;;;;;;;6.75;5.35;;;9.40;81.20;;;;;;4992427;28;20070;-76
2023/12/14 05:08:38;;;;;;;6.20;4.95;;;9.40;81.20;;;;;;4992682;28;20034;-75
2023/12/14 05:11:04;;;;;;;6.25;4.80;;;9.40;81.20;;;;;;4976328;28;20432;-76
2023/12/14 05:13:30;;;;;;;6.28;4.57;;;9.40;81.20;;;;;;4992523;28;20372;-77
2023/12/14 05:15:57;;;;;;;6.15;4.93;;;9.40;81.20;;;;;;4976995;28;20337;-76
2023/12/14 05:18:23;;;;;;;6.45;5.00;;;9.40;81.20;;;;;;4976245;28;20029;-76
2023/12/14 05:20:50;;;;;;;6.88;5.63;;;9.40;81.20;;;;;;4992303;28;20475;-75
2023/12/14 05:23:16;;;;;;;6.47;5.15;;;9.40;81.30;;;;;;4993000;28;20045;-76
2023/12/14 05:25:42;;;;;;;6.47;5.13;;;9.30;81.20;;;;;;4976872;28;20104;-75
2023/12/14 05:28:08;;;;;;;6.65;5.28;;;9.30;81.20;;;;;;4976435;28;20035;-76
2023/12/14 05:30:34;;;;;;;6.40;4.75;;;9.40;81.30;;;;;;4994611;28;20093;-75
2023/12/14 05:32:59;;;;;;;6.82;5.35;;;9.30;81.20;;;;;;4980190;28;20037;-76
2023/12/14 05:35:25;;;;;;;7.00;5.28;;;9.30;81.20;;;;;;4996796;28;20050;-76
2023/12/14 05:37:51;;;;;;;7.03;5.63;;;9.30;81.20;;;;;;4980178;28;20034;-75
2023/12/14 05:40:16;;;;;;;7.13;5.38;;;9.30;81.20;;;;;;4997280;28;20058;-75
2023/12/14 05:42:42;;;;;;;6.78;5.28;;;9.30;81.20;;;;;;4979883;28;20410;-73
2023/12/14 05:45:08;;;;;;;7.38;5.72;;;9.30;81.20;;;;;;4996816;28;20505;-75
2023/12/14 05:47:34;;;;;;;6.63;5.07;;;9.30;81.20;;;;;;4980081;28;20098;-76
2023/12/14 05:50:01;;;;;;;6.85;5.35;;;9.30;81.20;;;;;;4996419;28;20038;-75
2023/12/14 05:52:27;;;;;;;6.72;5.63;;;9.30;81.20;;;;;;4996118;28;20449;-75
2023/12/14 05:54:53;;;;;;;6.18;5.00;;;9.30;81.20;;;;;;4995762;28;20498;-76
2023/12/14 05:57:19;;;;;;;6.75;5.20;;;9.30;81.20;;;;;;4980439;28;20031;-75
2023/12/14 05:59:45;;;;;;;6.38;4.78;;;9.30;81.20;;;;;;4995886;28;20034;-76
2023/12/14 06:02:11;;;;;;;6.95;5.20;;;9.30;81.20;;;;;;4995873;28;20033;-74
2023/12/14 06:04:36;;;;;;;6.88;5.35;;;9.20;81.20;;;;;;4979289;28;20165;-75
2023/12/14 06:07:02;;;;;;;6.85;5.35;;;9.30;81.20;;;;;;4979593;28;20042;-75
2023/12/14 06:09:34;;;;;;;6.20;4.93;;;9.30;81.20;;;;;;4980229;28;20105;-77
2023/12/14 06:12:04;;;;;;;6.15;5.05;;;9.20;81.20;;;;;;4979418;28;20030;-76
2023/12/14 06:14:31;;;;;;;6.32;4.65;;;9.20;81.20;;;;;;4979803;28;20064;-76
2023/12/14 06:16:57;;;;;;;6.93;5.10;;;9.20;81.10;;;;;;4979127;28;20038;-77
2023/12/14 06:19:23;;;;;;;6.78;4.80;;;9.20;81.10;;;;;;4995588;28;20065;-75
2023/12/14 06:21:49;;;;;;;6.80;5.22;;;9.20;81.10;;;;;;4979062;28;20038;-75
2023/12/14 06:24:15;;;;;;;6.47;5.05;;;9.20;81.10;;;;;;4995186;28;20081;-76
2023/12/14 06:26:45;;;;;;;6.55;4.72;;;9.20;81.10;;;;;;4979061;28;20074;-76
2023/12/14 06:29:11;;;;;;;6.50;4.82;;;9.20;81.20;;;;;;4978863;28;20117;-75
2023/12/14 06:31:37;;;;;;;6.85;5.22;;;9.20;81.20;;;;;;4979069;28;20053;-75
2023/12/14 06:34:03;;;;;;;6.13;4.60;;;9.20;81.20;;;;;;4995022;28;20030;-76
2023/12/14 06:36:34;;;;;;;5.70;4.20;;;9.20;81.20;;;;;;4978976;28;20506;-74
2023/12/14 06:39:00;;;;;;;6.10;4.60;;;9.20;81.20;;;;;;4995077;28;20046;-76
2023/12/14 06:41:27;;;;;;;5.88;4.47;;;9.20;81.20;;;;;;4994330;28;20037;-75
2023/12/14 06:43:54;;;;;;;6.25;4.53;;;9.20;81.20;;;;;;4979421;28;20121;-76
2023/12/14 06:46:20;;;;;;;5.75;4.60;;;9.20;81.20;;;;;;4978982;28;20053;-75
2023/12/14 06:48:46;;;;;;;6.53;4.88;;;9.20;81.20;;;;;;4994894;28;20479;-75
2023/12/14 06:51:12;;;;;;;6.22;4.75;;;9.20;81.20;;;;;;4978994;28;20073;-75
2023/12/14 06:53:40;;;;;;;6.43;4.47;;;9.20;81.20;;;;;;4978781;28;20081;-75
2023/12/14 06:56:10;;;;;;;5.68;4.32;;;9.10;81.20;;;;;;4995132;28;20042;-75
2023/12/14 06:58:37;;;;;;;6.15;4.63;;;9.10;81.20;;;;;;4996139;28;20034;-75
2023/12/14 07:01:03;;;;;;;6.68;4.88;;;9.10;81.20;;;;;;4978478;28;20035;-76
2023/12/14 07:03:28;;;;;;;5.90;4.55;;;9.10;81.20;;;;;;4962435;28;20081;-75
2023/12/14 07:05:54;;;;;;;6.25;4.50;;;9.10;81.20;;;;;;4994514;28;20633;-74
2023/12/14 07:08:20;;;;;;;6.35;4.53;;;9.10;81.20;;;;;;4994415;28;20038;-76
2023/12/14 07:10:46;;;;;;;5.38;4.05;;;9.10;81.20;;;;;;4978603;28;20030;-75
2023/12/14 07:13:11;;;;;;;5.88;3.92;;;9.10;81.20;;;;;;4994530;28;20482;-75
2023/12/14 07:15:37;;;;;;;6.00;4.32;;;9.10;81.20;;;;;;4995090;28;20459;-75
2023/12/14 07:18:03;;;;;;;5.78;4.45;;;9.10;81.20;;;;;;4994702;28;20387;-75
2023/12/14 07:20:28;;;;;;;6.10;4.22;;;9.10;81.20;;;;;;4995230;28;20026;-74
2023/12/14 07:22:54;;;;;;;5.32;4.18;;;9.10;81.20;;;;;;4978402;28;20030;-76
2023/12/14 07:25:20;;;;;;;5.15;4.00;;;9.10;81.10;;;;;;4978248;28;20042;-75
2023/12/14 07:27:46;;;;;;;6.07;4.25;;;9.10;81.10;;;;;;4978485;28;20038;-76
2023/12/14 07:30:13;;;;;;;5.38;3.92;;;9.10;81.20;;;;;;4994573;28;20027;-75
2023/12/14 07:32:39;;;;;;;5.28;3.72;;;9.10;81.20;;;;;;4978545;28;20037;-76
2023/12/14 07:35:06;;;;;;;6.13;4.30;;;9.00;81.10;;;;;;4977700;28;20038;-75
2023/12/14 07:37:32;;;;;;;5.70;4.30;;;9.10;81.20;;;;;;4994587;28;20056;-76
2023/12/14 07:40:00;;;;;;;5.57;4.00;;;9.10;81.20;;;;;;4978511;28;20594;-75
2023/12/14 07:42:26;;;;;;;6.32;4.22;;;9.00;81.10;;;;;;4993624;28;20031;-75
2023/12/14 07:44:52;;;;;;;5.60;4.10;;;9.00;81.10;;;;;;4977852;28;20035;-75
2023/12/14 07:47:18;;;;;;;5.45;3.72;;;9.00;81.10;;;;;;4977537;28;20022;-76
2023/12/14 07:49:44;;;;;;;5.45;3.90;;;9.00;81.10;;;;;;4993979;28;20027;-75
2023/12/14 07:52:09;;;;;;;5.50;3.78;;;9.00;81.10;;;;;;4993325;28;20030;-75
2023/12/14 07:54:36;;;;;;;5.50;3.58;;;9.00;81.10;;;;;;4977412;28;20038;-76
2023/12/14 07:57:02;;;;;;;4.80;3.65;;;9.00;81.10;;;;;;4995030;28;20034;-73
2023/12/14 07:59:29;;;;;;;6.15;4.07;;;9.00;81.10;;;;;;4977509;28;20022;-76
2023/12/14 08:01:55;;;;;;;5.13;3.47;;;9.00;81.10;;;;;;4977432;28;20046;-77
2023/12/14 08:04:21;;;;;;;5.35;4.18;;;9.00;81.10;;;;;;4993733;28;20062;-74
2023/12/14 08:06:47;;;;;;;5.65;3.90;;;9.00;81.10;;;;;;4993859;28;20046;-74
2023/12/14 08:09:13;;;;;;;5.07;3.78;;;9.00;81.10;;;;;;4977963;28;20030;-75
2023/12/14 08:11:38;;;;;;;4.97;3.35;;;9.00;81.10;;;;;;4977355;28;20034;-76
2023/12/14 08:14:04;;;;;;;5.10;3.33;;;9.00;81.10;;;;;;4977214;28;20039;-75
2023/12/14 08:16:30;;;;;;;4.97;3.55;;;8.90;81.00;;;;;;4977324;28;20038;-74
2023/12/14 08:18:55;;;;;;;4.82;3.50;;;8.90;81.00;;;;;;4977633;28;20117;-75
2023/12/14 08:21:21;;;;;;;5.57;3.70;;;9.00;81.00;;;;;;4993215;28;20041;-75
2023/12/14 08:23:47;;;;;;;5.70;4.22;;;8.90;80.90;;;;;;4993688;28;20029;-75
2023/12/14 08:26:13;;;;;;;4.63;3.38;;;8.90;80.90;;;;;;4977516;28;20042;-76
2023/12/14 08:28:42;;;;;;;5.45;3.80;;;8.90;80.90;;;;;;4993065;28;20042;-75
2023/12/14 08:31:09;;;;;;;4.47;3.58;;;8.90;81.00;;;;;;4993754;28;20038;-75
2023/12/14 08:33:35;;;;;;;5.28;3.65;;;8.90;81.00;;;;;;4993014;28;20089;-75
2023/12/14 08:36:01;;;;;;;4.47;3.25;;;8.90;81.00;;;;;;4993012;28;20038;-75
2023/12/14 08:38:27;;;;;;;5.30;3.72;;;8.90;81.00;;;;;;4992884;28;20034;-75
2023/12/14 08:40:52;;;;;;;5.00;3.70;;;8.90;81.00;;;;;;4992641;28;20535;-74
2023/12/14 08:43:18;;;;;;;4.63;3.38;;;8.90;81.00;;;;;;4976905;28;20118;-75
2023/12/14 08:45:44;;;;;;;5.25;3.90;;;8.90;81.00;;;;;;4992565;28;20038;-73
2023/12/14 08:48:10;;;;;;;5.38;3.60;;;8.90;81.00;;;;;;4992862;28;20104;-74
2023/12/14 08:50:36;;;;;;;4.97;3.72;;;8.80;81.00;;;;;;4976690;28;20041;-74
2023/12/14 08:53:01;;;;;;;5.15;3.75;;;8.90;81.10;;;;;;4992777;28;20030;-75
2023/12/14 08:55:28;;;;;;;5.30;3.78;;;8.80;81.00;;;;;;4976231;28;20035;-75
2023/12/14 08:57:53;;;;;;;4.45;3.28;;;8.80;81.00;;;;;;4976655;28;20054;-75
2023/12/14 09:00:19;;;;;;;5.05;3.55;;;8.80;81.00;;;;;;4976675;28;20507;-75
2023/12/14 09:02:45;;;;;;;5.57;3.55;;;8.80;81.10;;;;;;4993097;28;20057;-75
2023/12/14 09:05:16;;;;;;;5.18;3.53;;;8.80;81.00;;;;;;4993157;28;20054;-76
2023/12/14 09:07:42;;;;;;;5.28;3.83;;;8.80;81.00;;;;;;4992400;28;20452;-76
2023/12/14 09:10:08;;;;;;;5.07;3.60;;;8.80;81.00;;;;;;4976603;28;20038;-77
2023/12/14 09:12:34;;;;;;;4.93;3.38;;;8.80;81.00;;;;;;4992322;28;20101;-75
2023/12/14 09:15:00;;;;;;;5.28;3.60;;;8.80;81.00;;;;;;4976213;28;20026;-76
2023/12/14 09:17:32;;;;;;;5.07;3.55;;;8.80;81.00;;;;;;4992266;28;20384;-74
2023/12/14 09:19:59;;;;;;;5.30;3.90;;;8.80;81.00;;;;;;4976908;28;20030;-76
2023/12/14 09:22:25;;;;;;;5.13;3.78;;;8.80;81.00;;;;;;4991746;28;20482;-74
2023/12/14 09:24:51;;;;;;;4.88;3.63;;;8.80;81.00;;;;;;4991934;28;20418;-75
2023/12/14 09:27:17;;;;;;;4.63;3.28;;;8.70;80.90;;;;;;4991818;28;20026;-73
2023/12/14 09:29:43;;;;;;;5.55;3.72;;;8.80;81.00;;;;;;4993474;28;20130;-75
2023/12/14 09:32:09;;;;;;;4.45;3.25;;;8.80;81.00;;;;;;4975698;28;20058;-76
2023/12/14 09:34:35;;;;;;;4.93;3.47;;;8.80;81.00;;;;;;4975870;28;20503;-76
2023/12/14 09:37:01;;;;;;;4.40;3.45;;;8.80;81.10;;;;;;4975747;28;20034;-76
2023/12/14 09:39:27;;;;;;;5.68;3.70;;;8.80;81.00;;;;;;4975948;28;20514;-76
2023/12/14 09:42:05;;;;;;;5.55;3.72;;;8.70;81.00;;;;;;4992659;28;20054;-76
2023/12/14 09:44:31;;;;;;;4.90;3.53;;;8.70;81.00;;;;;;4976451;28;20061;-75
2023/12/14 09:47:02;;;;;;;5.53;3.90;;;8.70;80.90;;;;;;4992440;28;20042;-76
2023/12/14 09:49:29;;;;;;;5.03;3.55;;;8.80;81.10;;;;;;4975852;28;20058;-76
2023/12/14 09:51:58;;;;;;;5.05;3.58;;;8.70;81.00;;;;;;4975777;28;20379;-75
2023/12/14 09:54:26;;;;;;;5.25;3.63;;;8.70;81.00;;;;;;4993408;28;20030;-74
2023/12/14 09:56:55;;;;;;;5.43;3.78;;;8.70;81.00;;;;;;4992028;28;20081;-74
2023/12/14 09:59:21;;;;;;;4.88;3.60;;;8.70;81.00;;;;;;4991846;28;20033;-74
2023/12/14 10:01:47;;;;;;;5.32;3.58;;;8.70;81.00;;;;;;4976080;28;20351;-74
2023/12/14 10:04:17;;;;;;;5.03;3.55;;;8.70;81.00;;;;;;4993328;28;20054;-74
2023/12/14 10:06:46;;;;;;;4.43;3.45;;;8.70;81.10;;;;;;4992013;28;20047;-74
2023/12/14 10:09:16;;;;;;;4.28;3.25;;;8.70;81.10;;;;;;4993376;28;20399;-75
2023/12/14 10:11:43;;;;;;;5.03;3.60;;;8.70;81.00;;;;;;4976866;28;20038;-74
2023/12/14 10:14:25;;;;;;;5.22;3.63;;;8.70;81.00;;;;;;4976141;28;20097;-74
2023/12/14 10:16:52;;;;;;;4.22;3.20;;;8.70;81.10;;;;;;4992920;28;20396;-74
2023/12/14 10:19:19;;;;;;;5.05;3.65;;;8.70;81.00;;;;;;4995650;28;20042;-74
2023/12/14 10:21:47;;;;;;;5.32;3.78;;;8.70;81.00;;;;;;4979232;28;20057;-75
2023/12/14 10:24:13;;;;;;;5.10;3.53;;;8.70;81.10;;;;;;4995484;28;20113;-74
2023/12/14 10:26:39;;;;;;;5.28;3.80;;;8.70;81.10;;;;;;4995859;28;20093;-74
2023/12/14 10:29:05;;;;;;;4.57;3.60;;;8.70;81.00;;;;;;4979054;28;20039;-74
2023/12/14 10:31:31;;;;;;;4.85;3.67;;;8.70;81.00;;;;;;4995255;28;20125;-73
2023/12/14 10:33:57;;;;;;;5.35;3.70;;;8.70;81.00;;;;;;4997039;28;20384;-73
2023/12/14 10:36:25;;;;;;;5.32;3.92;;;8.70;81.00;;;;;;4979587;28;20190;-74
2023/12/14 10:38:57;;;;;;;6.00;4.07;;;8.70;81.00;;;;;;4979165;28;20113;-73
2023/12/14 10:41:24;;;;;;;5.38;3.75;;;8.70;81.10;;;;;;4996348;28;20026;-74
2023/12/14 10:43:53;;;;;;;5.40;3.83;;;8.70;81.00;;;;;;4995007;28;20030;-74
2023/12/14 10:46:19;;;;;;;4.63;3.45;;;8.70;81.00;;;;;;4994631;28;20081;-75
2023/12/14 10:48:47;;;;;;;5.13;3.70;;;8.70;81.00;;;;;;4978982;28;20396;-75
2023/12/14 10:51:14;;;;;;;5.45;4.07;;;8.70;81.10;;;;;;4994742;28;20030;-73
2023/12/14 10:53:44;;;;;;;5.80;4.05;;;8.70;81.00;;;;;;4994641;28;20377;-75
2023/12/14 10:56:11;;;;;;;4.97;3.65;;;8.70;81.00;;;;;;4978943;28;20479;-75
2023/12/14 10:58:57;;;;;;;5.18;3.97;;;8.70;81.10;;;;;;4978307;28;20098;-75
2023/12/14 11:01:24;;;;;;;5.10;3.85;;;8.70;81.10;;;;;;4995123;28;20034;-77
2023/12/14 11:03:57;;;;;;;4.97;3.70;;;8.70;81.00;;;;;;4994452;28;20034;-75
2023/12/14 11:06:31;;;;;;;5.32;3.88;;;8.70;81.10;;;;;;4978617;28;20126;-77
2023/12/14 11:09:05;;;;;;;5.13;3.95;;;8.80;81.10;;;;;;4996271;28;20030;-76
2023/12/14 11:11:52;;;;;;;5.80;4.05;;;8.70;81.00;;;;;;4978780;28;20035;-77
2023/12/14 11:14:20;;;;;;;5.80;4.13;;;8.70;81.10;;;;;;4981573;28;20078;-76
2023/12/14 11:16:48;;;;;;;5.28;3.92;;;8.70;81.00;;;;;;4978750;28;20065;-77
2023/12/14 11:19:25;;;;;;;5.30;4.05;;;8.70;81.00;;;;;;4978759;28;20113;-76
2023/12/14 11:21:56;;;;;;;5.78;3.63;;;8.70;81.10;;;;;;4996485;28;20410;-77
2023/12/14 11:24:22;;;;;;;5.68;3.97;;;8.70;81.10;;;;;;4994449;28;20026;-76
2023/12/14 11:26:52;;;;;;;5.53;4.25;;;8.80;81.10;;;;;;4994640;28;20038;-76
2023/12/14 11:29:19;;;;;;;5.68;3.97;;;8.80;81.10;;;;;;4993759;28;20026;-77
2023/12/14 11:31:45;;;;;;;5.22;3.88;;;8.70;81.10;;;;;;4978134;28;20076;-74
2023/12/14 11:34:12;;;;;;;4.93;3.78;;;8.80;81.10;;;;;;4994949;28;20034;-74
2023/12/14 11:36:41;;;;;;;5.70;4.30;;;8.80;81.10;;;;;;4994159;28;20030;-75
2023/12/14 11:39:09;;;;;;;4.78;3.78;;;8.80;81.10;;;;;;4977790;28;20034;-76
2023/12/14 11:41:36;;;;;;;6.05;4.25;;;8.80;81.10;;;;;;4994147;28;20561;-76
2023/12/14 11:44:02;;;;;;;5.18;3.85;;;8.80;81.10;;;;;;4993868;28;20132;-76
2023/12/14 11:46:30;;;;;;;6.32;4.78;;;8.80;81.10;;;;;;4977634;28;20070;-76
2023/12/14 11:48:57;;;;;;;5.85;4.18;;;8.80;81.10;;;;;;4993971;28;20032;-75
2023/12/14 11:51:25;;;;;;;5.30;3.67;;;8.80;81.10;;;;;;4977876;28;20026;-76
2023/12/14 11:53:51;;;;;;;5.35;3.85;;;8.80;81.10;;;;;;4977823;28;20026;-76
2023/12/14 11:56:18;;;;;;;5.10;3.85;;;8.80;81.10;;;;;;4977500;28;20072;-77
2023/12/14 11:58:45;;;;;;;5.95;4.28;;;8.80;81.10;;;;;;4993793;28;20030;-75
2023/12/14 12:01:18;;;;;;;5.80;4.45;;;8.80;81.10;;;;;;4994919;28;20026;-73
2023/12/14 12:03:45;;;;;;;5.20;3.78;;;8.80;81.20;;;;;;4993837;28;20030;-77
2023/12/14 12:06:24;;;;;;;5.68;4.18;;;8.80;81.10;;;;;;4993581;28;20116;-74
2023/12/14 12:08:51;;;;;;;5.72;3.97;;;8.80;81.20;;;;;;4993449;28;20035;-74
2023/12/14 12:11:21;;;;;;;5.55;4.18;;;8.80;81.10;;;;;;4993420;28;20088;-74
2023/12/14 12:13:57;;;;;;;6.28;4.30;;;8.80;81.20;;;;;;4994863;28;20030;-75
2023/12/14 12:16:23;;;;;;;5.95;4.28;;;8.80;81.20;;;;;;4994061;28;20042;-75
2023/12/14 12:18:50;;;;;;;4.88;3.75;;;8.80;81.10;;;;;;4993110;28;20069;-74
2023/12/14 12:21:16;;;;;;;5.53;4.15;;;8.80;81.10;;;;;;4993156;28;20034;-74
2023/12/14 12:23:42;;;;;;;5.93;4.40;;;8.90;81.20;;;;;;4993072;28;20041;-75
2023/12/14 12:26:08;;;;;;;5.22;3.85;;;8.80;81.10;;;;;;4976828;28;20125;-74
2023/12/14 12:28:34;;;;;;;5.85;4.30;;;8.80;81.10;;;;;;4977564;28;20360;-74
2023/12/14 12:31:00;;;;;;;5.80;4.32;;;8.80;81.10;;;;;;4992782;28;20040;-75
2023/12/14 12:33:26;;;;;;;6.13;4.13;;;8.80;81.10;;;;;;4993064;28;20037;-74
2023/12/14 12:35:52;;;;;;;6.60;4.28;;;8.90;81.20;;;;;;4977070;28;20057;-74
2023/12/14 12:38:21;;;;;;;6.72;4.22;;;8.90;81.20;;;;;;4994001;28;20034;-74
2023/12/14 12:40:47;;;;;;;5.78;3.83;;;8.80;81.10;;;;;;4992605;28;20129;-74
2023/12/14 12:43:14;;;;;;;5.43;4.00;;;8.90;81.10;;;;;;4992751;28;20547;-75
2023/12/14 12:45:39;;;;;;;5.72;4.20;;;8.90;81.10;;;;;;4976173;28;20070;-74
2023/12/14 12:48:06;;;;;;;6.07;4.75;;;8.90;81.10;;;;;;4992969;28;20097;-74
2023/12/14 12:50:33;;;;;;;5.90;4.47;;;8.90;81.10;;;;;;4976624;28;20034;-76
2023/12/14 12:52:58;;;;;;;6.20;4.68;;;8.90;81.10;;;;;;4992749;28;20069;-74